createdAt,value
2023-05-19T00:00:02.390Z,91.24
2023-05-19T00:02:04.134Z,91.71
2023-05-19T00:04:05.900Z,90.95
2023-05-19T00:06:08.297Z,89.33
2023-05-19T00:08:10.967Z,91.13
2023-05-19T00:10:12.936Z,89.30
2023-05-19T00:12:15.034Z,89.79
2023-05-19T00:14:16.922Z,88.65
2023-05-19T00:16:18.704Z,89.60
2023-05-19T00:18:20.306Z,89.43
2023-05-19T00:20:22.298Z,90.75
2023-05-19T00:22:23.727Z,90.79
2023-05-19T00:24:25.158Z,91.59
2023-05-19T00:26:27.536Z,90.46
2023-05-19T00:28:28.973Z,90.07
2023-05-19T00:30:30.879Z,89.71
2023-05-19T00:32:32.573Z,90.91
2023-05-19T00:34:34.069Z,90.06
2023-05-19T00:36:35.528Z,92.53
2023-05-19T00:38:37.393Z,91.66
2023-05-19T00:40:38.938Z,92.70
2023-05-19T00:42:41.388Z,92.85
2023-05-19T00:44:43.005Z,94.22
2023-05-19T00:46:44.454Z,92.17
2023-05-19T00:48:46.130Z,92.79
2023-05-19T00:50:48.469Z,91.29
2023-05-19T00:52:51.058Z,91.16
2023-05-19T00:54:53.487Z,91.31
2023-05-19T00:56:55.972Z,91.80
2023-05-19T00:58:57.499Z,90.99
2023-05-19T01:01:00.172Z,92.28
2023-05-19T01:03:02.382Z,90.55
2023-05-19T01:05:04.237Z,90.97
2023-05-19T01:07:05.741Z,89.25
2023-05-19T01:09:07.273Z,88.98
2023-05-19T01:11:08.811Z,88.60
2023-05-19T01:13:10.295Z,88.74
2023-05-19T01:15:12.577Z,88.25
2023-05-19T01:17:29.755Z,87.81
2023-05-19T01:19:49.407Z,87.94
2023-05-19T01:21:59.646Z,89.13
2023-05-19T01:24:41.863Z,87.88
2023-05-19T01:27:07.585Z,88.22
2023-05-19T01:29:41.126Z,87.92
2023-05-19T01:31:44.133Z,87.58
2023-05-19T01:33:47.533Z,87.70
2023-05-19T01:35:50.670Z,87.20
2023-05-19T01:37:55.372Z,87.40
2023-05-19T01:39:57.344Z,87.70
2023-05-19T01:42:00.896Z,88.44
2023-05-19T01:44:02.554Z,88.31
2023-05-19T01:46:05.432Z,87.57
2023-05-19T01:48:10.660Z,87.96
2023-05-19T01:50:12.812Z,87.65
2023-05-19T01:52:14.422Z,88.14
2023-05-19T01:54:15.889Z,89.28
2023-05-19T01:56:27.029Z,90.18
2023-05-19T01:58:44.541Z,89.63
2023-05-19T02:01:07.714Z,88.85
2023-05-19T02:03:14.696Z,89.81
2023-05-19T02:05:26.429Z,89.48
2023-05-19T02:07:33.756Z,88.54
2023-05-19T02:09:43.576Z,89.68
2023-05-19T02:12:02.972Z,89.26
2023-05-19T02:14:13.760Z,90.87
2023-05-19T02:16:17.140Z,89.80
2023-05-19T02:18:19.077Z,90.53
2023-05-19T02:20:21.487Z,90.24
2023-05-19T02:22:22.961Z,91.28
2023-05-19T02:24:24.591Z,90.83
2023-05-19T02:26:26.068Z,91.79
2023-05-19T02:28:27.500Z,92.61
2023-05-19T02:30:29.067Z,92.29
2023-05-19T02:32:31.816Z,94.26
2023-05-19T02:34:33.266Z,92.25
2023-05-19T02:36:35.688Z,91.38
2023-05-19T02:38:37.143Z,91.46
2023-05-19T02:40:38.588Z,91.23
2023-05-19T02:42:40.044Z,91.72
2023-05-19T02:44:41.496Z,91.50
2023-05-19T02:46:43.014Z,91.24
2023-05-19T02:48:44.671Z,92.84
2023-05-19T02:50:46.187Z,94.62
2023-05-19T02:52:47.589Z,92.97
2023-05-19T02:54:49.188Z,92.39
2023-05-19T02:56:50.623Z,94.98
2023-05-19T02:58:52.043Z,93.54
2023-05-19T03:00:53.654Z,93.71
2023-05-19T03:02:55.184Z,94.15
2023-05-19T03:04:56.636Z,95.15
2023-05-19T03:06:58.441Z,95.98
2023-05-19T03:08:59.943Z,93.90
2023-05-19T03:11:01.947Z,93.75
2023-05-19T03:13:03.557Z,93.95
2023-05-19T03:15:05.453Z,94.12
2023-05-19T03:17:06.910Z,93.87
2023-05-19T03:19:08.862Z,93.84
2023-05-19T03:21:10.375Z,95.03
2023-05-19T03:23:11.815Z,95.39
2023-05-19T03:25:13.484Z,94.99
2023-05-19T03:27:14.952Z,96.68
2023-05-19T03:29:16.393Z,96.44
2023-05-19T03:31:18.091Z,97.19
2023-05-19T03:33:19.741Z,97.23
2023-05-19T03:35:21.288Z,98.70
2023-05-19T03:37:22.798Z,99.12
2023-05-19T03:39:24.356Z,99.94
2023-05-19T03:41:26.014Z,99.89
2023-05-19T03:43:27.728Z,100.00
2023-05-19T03:45:29.160Z,100.00
2023-05-19T03:47:30.653Z,100.00
2023-05-19T03:49:32.310Z,100.00
2023-05-19T03:51:33.895Z,100.00
2023-05-19T03:53:35.368Z,100.00
2023-05-19T03:55:37.040Z,100.00
2023-05-19T03:57:38.464Z,100.00
2023-05-19T03:59:39.917Z,100.00
2023-05-19T04:01:41.714Z,100.00
2023-05-19T04:03:43.276Z,100.00
2023-05-19T04:05:44.840Z,100.00
2023-05-19T04:07:46.436Z,100.00
2023-05-19T04:09:47.874Z,100.00
2023-05-19T04:11:49.717Z,100.00
2023-05-19T04:13:51.492Z,100.00
2023-05-19T04:15:53.057Z,100.00
2023-05-19T04:17:54.712Z,100.00
2023-05-19T04:19:56.246Z,100.00
2023-05-19T04:21:57.818Z,100.00
2023-05-19T04:23:59.370Z,100.00
2023-05-19T04:26:01.111Z,100.00
2023-05-19T04:28:02.608Z,100.00
2023-05-19T04:30:04.970Z,100.00
2023-05-19T04:32:07.094Z,100.00
2023-05-19T04:34:08.537Z,100.00
2023-05-19T04:36:10.115Z,100.00
2023-05-19T04:38:11.659Z,100.00
2023-05-19T04:40:13.358Z,100.00
2023-05-19T04:42:14.812Z,100.00
2023-05-19T04:44:16.338Z,100.00
2023-05-19T04:46:17.795Z,100.00
2023-05-19T04:48:19.280Z,100.00
2023-05-19T04:50:20.933Z,100.00
2023-05-19T04:52:22.577Z,100.00
2023-05-19T04:54:24.045Z,100.00
2023-05-19T04:56:25.718Z,100.00
2023-05-19T04:58:27.255Z,100.00
2023-05-19T05:00:28.763Z,100.00
2023-05-19T05:02:30.397Z,100.00
2023-05-19T05:04:31.838Z,100.00
2023-05-19T05:06:33.467Z,100.00
2023-05-19T05:08:35.218Z,100.00
2023-05-19T05:10:36.687Z,100.00
2023-05-19T05:12:38.410Z,100.00
2023-05-19T05:14:40.390Z,100.00
2023-05-19T05:16:42.649Z,100.00
2023-05-19T05:18:45.017Z,100.00
2023-05-19T05:20:47.032Z,100.00
2023-05-19T05:22:48.852Z,100.00
2023-05-19T05:24:50.466Z,100.00
2023-05-19T05:26:52.231Z,100.00
2023-05-19T05:28:53.650Z,100.00
2023-05-19T05:30:55.113Z,100.00
2023-05-19T05:32:57.428Z,100.00
2023-05-19T05:34:59.179Z,100.00
2023-05-19T05:37:00.653Z,100.00
2023-05-19T05:39:02.296Z,100.00
2023-05-19T05:41:03.886Z,100.00
2023-05-19T05:43:05.457Z,100.00
2023-05-19T05:45:07.830Z,100.00
2023-05-19T05:47:09.600Z,100.00
2023-05-19T05:49:11.489Z,100.00
2023-05-19T05:51:13.167Z,100.00
2023-05-19T05:53:18.826Z,100.00
2023-05-19T05:55:20.659Z,100.00
2023-05-19T05:57:22.618Z,100.00
2023-05-19T05:59:24.069Z,100.00
2023-05-19T06:01:25.570Z,100.00
2023-05-19T06:03:27.362Z,100.00
2023-05-19T06:05:28.848Z,100.00
2023-05-19T06:07:30.370Z,100.00
2023-05-19T06:09:31.947Z,100.00
2023-05-19T06:11:33.438Z,100.00
2023-05-19T06:13:38.806Z,100.00
2023-05-19T06:15:40.351Z,100.00
2023-05-19T06:17:41.819Z,100.00
2023-05-19T06:19:43.266Z,100.00
2023-05-19T06:21:44.781Z,100.00
2023-05-19T06:23:46.645Z,100.00
2023-05-19T06:25:48.171Z,100.00
2023-05-19T06:27:49.609Z,100.00
2023-05-19T06:29:51.182Z,100.00
2023-05-19T06:31:52.724Z,100.00
2023-05-19T06:33:54.217Z,100.00
2023-05-19T06:35:55.684Z,100.00
2023-05-19T06:37:57.336Z,100.00
2023-05-19T06:39:58.773Z,100.00
2023-05-19T06:42:00.218Z,100.00
2023-05-19T06:44:01.660Z,100.00
2023-05-19T06:46:03.327Z,100.00
2023-05-19T06:48:04.991Z,100.00
2023-05-19T06:50:06.733Z,100.00
2023-05-19T06:52:08.451Z,100.00
2023-05-19T06:54:10.075Z,100.00
2023-05-19T06:56:11.513Z,100.00
2023-05-19T06:58:13.103Z,100.00
2023-05-19T07:00:17.988Z,100.00
2023-05-19T07:02:20.835Z,100.00
2023-05-19T07:04:22.462Z,100.00
2023-05-19T07:06:23.927Z,100.00
2023-05-19T07:08:25.432Z,100.00
2023-05-19T07:10:27.766Z,100.00
2023-05-19T07:12:29.186Z,100.00
2023-05-19T07:14:30.637Z,100.00
2023-05-19T07:16:32.872Z,100.00
2023-05-19T07:18:34.407Z,100.00
2023-05-19T07:20:35.950Z,100.00
2023-05-19T07:22:37.780Z,100.00
2023-05-19T07:24:39.214Z,100.00
2023-05-19T07:26:41.199Z,100.00
2023-05-19T07:28:42.689Z,100.00
2023-05-19T07:30:44.163Z,100.00
2023-05-19T07:32:45.680Z,100.00
2023-05-19T07:34:47.352Z,100.00
2023-05-19T07:36:48.819Z,100.00
2023-05-19T07:38:50.557Z,100.00
2023-05-19T07:40:52.311Z,100.00
2023-05-19T07:42:53.761Z,100.00
2023-05-19T07:44:55.280Z,100.00
2023-05-19T07:46:57.026Z,100.00
2023-05-19T07:48:58.468Z,100.00
2023-05-19T07:51:00.005Z,100.00
2023-05-19T07:53:01.594Z,100.00
2023-05-19T07:55:03.355Z,100.00
2023-05-19T07:57:05.033Z,100.00
2023-05-19T07:59:06.562Z,100.00
2023-05-19T08:01:08.077Z,100.00
2023-05-19T08:03:10.092Z,98.08
2023-05-19T08:05:11.871Z,100.00
2023-05-19T08:07:13.321Z,100.00
2023-05-19T08:09:15.044Z,100.00
2023-05-19T08:11:16.690Z,100.00
2023-05-19T08:13:18.253Z,98.26
2023-05-19T08:15:20.068Z,99.13
2023-05-19T08:17:21.625Z,97.90
2023-05-19T08:19:23.152Z,97.65
2023-05-19T08:21:24.700Z,100.00
2023-05-19T08:23:26.843Z,100.00
2023-05-19T08:25:28.295Z,98.92
2023-05-19T08:27:29.745Z,100.00
2023-05-19T08:29:31.459Z,100.00
2023-05-19T08:31:32.998Z,100.00
2023-05-19T08:33:34.531Z,100.00
2023-05-19T08:35:36.269Z,100.00
2023-05-19T08:37:39.022Z,100.00
2023-05-19T08:39:40.561Z,100.00
2023-05-19T08:41:42.183Z,100.00
2023-05-19T08:43:43.642Z,100.00
2023-05-19T08:45:46.120Z,100.00
2023-05-19T08:47:48.908Z,100.00
2023-05-19T08:49:53.240Z,100.00
2023-05-19T08:52:02.366Z,100.00
2023-05-19T08:54:15.341Z,100.00
2023-05-19T08:56:22.168Z,100.00
2023-05-19T08:58:23.645Z,100.00
2023-05-19T09:00:25.893Z,100.00
2023-05-19T09:02:27.745Z,100.00
2023-05-19T09:04:30.261Z,100.00
2023-05-19T09:06:32.189Z,100.00
2023-05-19T09:08:34.325Z,100.00
2023-05-19T09:10:35.988Z,100.00
2023-05-19T09:12:37.624Z,100.00
2023-05-19T09:14:39.102Z,100.00
2023-05-19T09:16:40.848Z,100.00
2023-05-19T09:18:54.344Z,100.00
2023-05-19T09:21:00.241Z,100.00
2023-05-19T09:23:01.713Z,100.00
2023-05-19T09:25:03.462Z,100.00
2023-05-19T09:27:05.111Z,97.73
2023-05-19T09:29:17.363Z,96.71
2023-05-19T09:31:18.945Z,95.25
2023-05-19T09:33:20.438Z,95.77
2023-05-19T09:35:21.960Z,96.34
2023-05-19T09:37:24.087Z,99.01
2023-05-19T09:39:26.125Z,99.62
2023-05-19T09:41:27.845Z,99.70
2023-05-19T09:43:30.430Z,99.42
2023-05-19T09:45:32.166Z,99.28
2023-05-19T09:47:37.908Z,100.00
2023-05-19T09:49:47.164Z,100.00
2023-05-19T09:51:54.227Z,97.38
2023-05-19T09:53:55.752Z,94.80
2023-05-19T09:55:57.913Z,93.16
2023-05-19T09:57:59.523Z,91.60
2023-05-19T10:00:03.467Z,89.82
2023-05-19T10:02:05.621Z,86.36
2023-05-19T10:04:07.335Z,91.15
2023-05-19T10:06:09.319Z,91.24
2023-05-19T10:08:12.365Z,90.05
2023-05-19T10:10:14.812Z,90.42
2023-05-19T10:12:18.003Z,86.19
2023-05-19T10:14:23.133Z,87.27
2023-05-19T10:16:27.791Z,89.20
2023-05-19T10:18:29.587Z,89.67
2023-05-19T10:20:32.655Z,90.77
2023-05-19T10:22:34.427Z,93.46
2023-05-19T10:24:36.019Z,91.32
2023-05-19T10:26:39.939Z,89.93
2023-05-19T10:28:44.406Z,89.07
2023-05-19T10:30:49.422Z,93.44
2023-05-19T10:32:51.405Z,91.43
2023-05-19T10:35:08.226Z,91.33
2023-05-19T10:37:23.048Z,92.51
2023-05-19T10:39:35.727Z,91.55
2023-05-19T10:41:41.587Z,93.96
2023-05-19T10:44:11.640Z,94.58
2023-05-19T10:46:13.441Z,96.35
2023-05-19T10:48:20.333Z,95.97
2023-05-19T10:50:21.792Z,94.58
2023-05-19T10:52:24.442Z,94.88
2023-05-19T10:54:42.814Z,96.96
2023-05-19T10:56:44.622Z,96.82
2023-05-19T10:58:46.933Z,94.95
2023-05-19T11:01:00.529Z,96.90
2023-05-19T11:03:15.766Z,95.67
2023-05-19T11:05:17.407Z,98.52
2023-05-19T11:07:20.077Z,97.97
2023-05-19T11:09:31.335Z,98.75
2023-05-19T11:11:55.196Z,98.31
2023-05-19T11:13:56.778Z,99.17
2023-05-19T11:15:58.372Z,96.18
2023-05-19T11:18:01.622Z,98.21
2023-05-19T11:20:03.254Z,97.70
2023-05-19T11:22:12.751Z,97.40
2023-05-19T11:24:35.232Z,97.57
2023-05-19T11:26:40.983Z,97.78
2023-05-19T11:28:42.805Z,96.66
2023-05-19T11:30:45.900Z,97.92
2023-05-19T11:32:48.058Z,99.25
2023-05-19T11:34:49.898Z,99.41
2023-05-19T11:36:52.932Z,98.38
2023-05-19T11:38:55.119Z,97.82
2023-05-19T11:40:56.992Z,96.06
2023-05-19T11:42:58.901Z,98.71
2023-05-19T11:45:00.539Z,97.66
2023-05-19T11:47:02.144Z,98.18
2023-05-19T11:49:05.342Z,97.52
2023-05-19T11:51:06.886Z,95.85
2023-05-19T11:53:11.312Z,95.19
2023-05-19T11:55:16.880Z,97.94
2023-05-19T11:57:18.850Z,100.00
2023-05-19T11:59:30.258Z,99.18
2023-05-19T12:01:32.816Z,98.53
2023-05-19T12:03:34.332Z,99.01
2023-05-19T12:05:43.681Z,100.00
2023-05-19T12:07:46.780Z,99.69
2023-05-19T12:09:49.284Z,100.00
2023-05-19T12:11:51.919Z,98.65
2023-05-19T12:13:58.311Z,97.88
2023-05-19T12:16:00.405Z,97.60
2023-05-19T12:18:02.562Z,97.31
2023-05-19T12:20:05.246Z,97.42
2023-05-19T12:22:07.594Z,96.88
2023-05-19T12:24:09.611Z,96.81
2023-05-19T12:26:11.221Z,96.21
2023-05-19T12:28:12.794Z,97.45
2023-05-19T12:30:14.427Z,96.22
2023-05-19T12:32:16.107Z,95.44
2023-05-19T12:34:17.566Z,95.28
2023-05-19T12:36:19.304Z,97.24
2023-05-19T12:38:21.304Z,98.98
2023-05-19T12:40:22.960Z,99.20
2023-05-19T12:42:27.437Z,97.34
2023-05-19T12:44:28.941Z,98.36
2023-05-19T12:46:32.782Z,98.48
2023-05-19T12:48:34.334Z,97.93
2023-05-19T12:50:37.791Z,96.54
2023-05-19T12:52:49.908Z,96.64
2023-05-19T12:55:01.966Z,98.77
2023-05-19T12:57:05.428Z,100.00
2023-05-19T12:59:07.610Z,100.00
2023-05-19T13:01:16.285Z,99.45
2023-05-19T13:03:21.227Z,100.00
2023-05-19T13:05:22.909Z,100.00
2023-05-19T13:07:24.490Z,100.00
2023-05-19T13:09:26.024Z,98.55
2023-05-19T13:11:27.471Z,100.00
2023-05-19T13:13:29.060Z,100.00
2023-05-19T13:15:32.691Z,100.00
2023-05-19T13:17:34.069Z,98.35
2023-05-19T13:19:35.669Z,99.16
2023-05-19T13:21:37.432Z,98.31
2023-05-19T13:23:38.865Z,98.36
2023-05-19T13:25:41.247Z,100.00
2023-05-19T13:27:44.539Z,100.00
2023-05-19T13:29:46.078Z,99.95
2023-05-19T13:31:47.506Z,100.00
2023-05-19T13:33:49.076Z,100.00
2023-05-19T13:35:50.578Z,97.90
2023-05-19T13:37:52.273Z,98.29
2023-05-19T13:39:54.463Z,97.38
2023-05-19T13:41:58.169Z,96.80
2023-05-19T13:43:59.600Z,95.92
2023-05-19T13:46:01.159Z,97.30
2023-05-19T13:48:02.787Z,97.26
2023-05-19T13:50:05.025Z,97.16
2023-05-19T13:52:06.758Z,97.04
2023-05-19T13:54:08.193Z,97.22
2023-05-19T13:56:09.667Z,96.85
2023-05-19T13:58:11.273Z,96.24
2023-05-19T14:00:13.220Z,95.30
2023-05-19T14:02:14.794Z,96.96
2023-05-19T14:04:18.764Z,97.51
2023-05-19T14:06:20.281Z,97.03
2023-05-19T14:08:21.753Z,97.36
2023-05-19T14:10:23.420Z,97.95
2023-05-19T14:12:36.405Z,99.10
2023-05-19T14:14:44.978Z,98.48
2023-05-19T14:16:46.662Z,100.00
2023-05-19T14:18:48.267Z,96.97
2023-05-19T14:20:49.745Z,100.00
2023-05-19T14:22:51.419Z,97.35
2023-05-19T14:24:52.864Z,98.88
2023-05-19T14:26:54.324Z,96.21
2023-05-19T14:28:56.033Z,96.29
2023-05-19T14:30:57.467Z,96.95
2023-05-19T14:32:59.080Z,98.02
2023-05-19T14:35:00.697Z,98.78
2023-05-19T14:37:02.152Z,99.06
2023-05-19T14:39:03.661Z,98.15
2023-05-19T14:41:06.618Z,97.45
2023-05-19T14:43:08.102Z,96.03
2023-05-19T14:45:10.191Z,98.25
2023-05-19T14:47:12.162Z,98.30
2023-05-19T14:49:13.696Z,99.00
2023-05-19T14:51:15.154Z,97.21
2023-05-19T14:53:16.696Z,97.82
2023-05-19T14:55:18.155Z,98.71
2023-05-19T14:57:19.605Z,97.79
2023-05-19T14:59:21.246Z,100.00
2023-05-19T15:01:22.756Z,99.10
2023-05-19T15:03:26.780Z,100.00
2023-05-19T15:05:28.327Z,100.00
2023-05-19T15:07:29.948Z,100.00
2023-05-19T15:09:31.421Z,99.41
2023-05-19T15:11:32.906Z,99.82
2023-05-19T15:13:34.424Z,99.16
2023-05-19T15:15:35.878Z,100.00
2023-05-19T15:17:37.417Z,100.00
2023-05-19T15:19:38.866Z,100.00
2023-05-19T15:21:40.300Z,100.00
2023-05-19T15:23:41.905Z,100.00
2023-05-19T15:25:43.402Z,100.00
2023-05-19T15:27:44.844Z,100.00
2023-05-19T15:29:46.440Z,100.00
2023-05-19T15:31:51.593Z,99.07
2023-05-19T15:33:53.200Z,97.06
2023-05-19T15:35:54.695Z,100.00
2023-05-19T15:37:56.152Z,99.94
2023-05-19T15:39:57.605Z,100.00
2023-05-19T15:41:59.425Z,100.00
2023-05-19T15:44:01.077Z,100.00
2023-05-19T15:46:02.827Z,100.00
2023-05-19T15:48:04.508Z,99.76
2023-05-19T15:50:06.479Z,99.70
2023-05-19T15:52:07.918Z,100.00
2023-05-19T15:54:09.827Z,100.00
2023-05-19T15:56:11.381Z,98.91
2023-05-19T15:58:12.832Z,99.29
2023-05-19T16:00:14.842Z,100.00
2023-05-19T16:02:16.359Z,98.55
2023-05-19T16:04:18.079Z,98.78
2023-05-19T16:06:19.674Z,99.37
2023-05-19T16:08:21.107Z,99.01
2023-05-19T16:10:22.589Z,99.23
2023-05-19T16:12:24.129Z,100.00
2023-05-19T16:14:26.493Z,99.80
2023-05-19T16:16:29.140Z,100.00
2023-05-19T16:18:30.700Z,100.00
2023-05-19T16:20:32.421Z,100.00
2023-05-19T16:22:34.057Z,100.00
2023-05-19T16:24:35.598Z,100.00
2023-05-19T16:26:37.181Z,100.00
2023-05-19T16:28:38.642Z,100.00
2023-05-19T16:30:40.617Z,100.00
2023-05-19T16:32:42.451Z,100.00
2023-05-19T16:34:43.946Z,100.00
2023-05-19T16:36:45.396Z,100.00
2023-05-19T16:38:46.857Z,100.00
2023-05-19T16:40:48.297Z,100.00
2023-05-19T16:42:49.779Z,100.00
2023-05-19T16:44:51.252Z,100.00
2023-05-19T16:46:52.680Z,100.00
2023-05-19T16:48:54.217Z,100.00
2023-05-19T16:50:55.652Z,100.00
2023-05-19T16:52:57.097Z,100.00
2023-05-19T16:54:58.602Z,100.00
2023-05-19T16:57:00.519Z,100.00
2023-05-19T16:59:02.030Z,100.00
2023-05-19T17:01:03.723Z,100.00
2023-05-19T17:03:05.379Z,100.00
2023-05-19T17:05:07.464Z,100.00
2023-05-19T17:07:11.588Z,100.00
2023-05-19T17:09:13.331Z,100.00
2023-05-19T17:11:14.767Z,100.00
2023-05-19T17:13:16.227Z,100.00
2023-05-19T17:15:17.813Z,100.00
2023-05-19T17:17:19.417Z,100.00
2023-05-19T17:19:21.109Z,100.00
2023-05-19T17:21:22.593Z,100.00
2023-05-19T17:23:24.039Z,100.00
2023-05-19T17:25:25.652Z,100.00
2023-05-19T17:27:27.099Z,100.00
2023-05-19T17:29:28.556Z,100.00
2023-05-19T17:31:30.083Z,100.00
2023-05-19T17:33:31.604Z,100.00
2023-05-19T17:35:33.454Z,100.00
2023-05-19T17:37:35.230Z,100.00
2023-05-19T17:39:36.771Z,100.00
2023-05-19T17:41:38.325Z,100.00
2023-05-19T17:43:41.410Z,100.00
2023-05-19T17:45:42.910Z,100.00
2023-05-19T17:47:44.405Z,100.00
2023-05-19T17:49:46.168Z,100.00
2023-05-19T17:51:47.664Z,100.00
2023-05-19T17:53:49.437Z,100.00
2023-05-19T17:55:53.126Z,100.00
2023-05-19T17:57:54.657Z,100.00
2023-05-19T17:59:56.386Z,100.00
2023-05-19T18:01:58.326Z,100.00
2023-05-19T18:04:00.207Z,100.00
2023-05-19T18:06:02.227Z,100.00
2023-05-19T18:08:06.870Z,100.00
2023-05-19T18:10:09.213Z,100.00
2023-05-19T18:12:10.921Z,100.00
2023-05-19T18:14:12.560Z,100.00
2023-05-19T18:16:14.019Z,100.00
2023-05-19T18:18:15.568Z,100.00
2023-05-19T18:20:17.248Z,100.00
2023-05-19T18:22:18.674Z,100.00
2023-05-19T18:24:20.314Z,100.00
2023-05-19T18:26:21.935Z,100.00
2023-05-19T18:28:23.907Z,100.00
2023-05-19T18:30:25.556Z,100.00
2023-05-19T18:32:27.393Z,100.00
2023-05-19T18:34:29.436Z,100.00
2023-05-19T18:36:31.679Z,100.00
2023-05-19T18:38:33.192Z,100.00
2023-05-19T18:40:34.894Z,100.00
2023-05-19T18:42:36.711Z,100.00
2023-05-19T18:44:38.756Z,100.00
2023-05-19T18:46:40.217Z,100.00
2023-05-19T18:48:41.838Z,100.00
2023-05-19T18:50:43.441Z,100.00
2023-05-19T18:52:44.882Z,100.00
2023-05-19T18:54:46.920Z,100.00
2023-05-19T18:56:48.568Z,100.00
2023-05-19T18:58:50.220Z,100.00
2023-05-19T19:00:55.085Z,100.00
2023-05-19T19:02:56.938Z,100.00
2023-05-19T19:04:58.616Z,100.00
2023-05-19T19:07:02.624Z,100.00
2023-05-19T19:09:04.511Z,100.00
2023-05-19T19:11:05.976Z,100.00
2023-05-19T19:13:07.685Z,100.00
2023-05-19T19:15:09.814Z,100.00
2023-05-19T19:17:11.374Z,100.00
2023-05-19T19:19:13.171Z,100.00
2023-05-19T19:21:14.827Z,100.00
2023-05-19T19:23:16.271Z,100.00
2023-05-19T19:25:18.023Z,100.00
2023-05-19T19:27:19.522Z,100.00
2023-05-19T19:29:20.968Z,100.00
2023-05-19T19:31:22.981Z,100.00
2023-05-19T19:33:24.418Z,100.00
2023-05-19T19:35:25.900Z,100.00
2023-05-19T19:37:27.477Z,100.00
2023-05-19T19:39:28.986Z,100.00
2023-05-19T19:41:30.475Z,100.00
2023-05-19T19:43:32.129Z,100.00
2023-05-19T19:45:34.037Z,100.00
2023-05-19T19:47:38.338Z,100.00
2023-05-19T19:49:40.016Z,100.00
2023-05-19T19:51:41.607Z,100.00
2023-05-19T19:53:43.051Z,100.00
2023-05-19T19:55:44.487Z,100.00
2023-05-19T19:57:46.017Z,100.00
2023-05-19T19:59:47.486Z,100.00
2023-05-19T20:01:49.432Z,100.00
2023-05-19T20:03:51.270Z,100.00
2023-05-19T20:05:54.777Z,100.00
2023-05-19T20:07:56.482Z,100.00
2023-05-19T20:09:58.476Z,100.00
2023-05-19T20:11:59.899Z,100.00
2023-05-19T20:14:01.595Z,100.00
2023-05-19T20:16:03.088Z,100.00
2023-05-19T20:18:04.622Z,100.00
2023-05-19T20:20:07.390Z,100.00
2023-05-19T20:22:08.954Z,100.00
2023-05-19T20:24:10.388Z,100.00
2023-05-19T20:26:13.469Z,100.00
2023-05-19T20:28:15.507Z,100.00
2023-05-19T20:30:16.938Z,100.00
2023-05-19T20:32:18.590Z,100.00
2023-05-19T20:34:20.225Z,100.00
2023-05-19T20:36:21.740Z,100.00
2023-05-19T20:38:23.393Z,100.00
2023-05-19T20:40:24.933Z,100.00
2023-05-19T20:42:26.382Z,100.00
2023-05-19T20:44:28.629Z,100.00
2023-05-19T20:46:30.121Z,100.00
2023-05-19T20:48:31.572Z,100.00
2023-05-19T20:50:33.322Z,100.00
2023-05-19T20:52:35.015Z,100.00
2023-05-19T20:54:36.580Z,100.00
2023-05-19T20:56:38.352Z,100.00
2023-05-19T20:58:39.900Z,100.00
2023-05-19T21:00:41.367Z,100.00
2023-05-19T21:02:43.021Z,100.00
2023-05-19T21:04:44.760Z,100.00
2023-05-19T21:06:46.426Z,100.00
2023-05-19T21:08:47.988Z,100.00
2023-05-19T21:10:49.554Z,100.00
2023-05-19T21:12:51.011Z,100.00
2023-05-19T21:14:52.468Z,100.00
2023-05-19T21:16:55.615Z,100.00
2023-05-19T21:18:57.128Z,100.00
2023-05-19T21:21:02.140Z,100.00
2023-05-19T21:23:03.824Z,100.00
2023-05-19T21:25:05.814Z,100.00
2023-05-19T21:27:07.392Z,100.00
2023-05-19T21:29:09.546Z,100.00
2023-05-19T21:31:11.092Z,100.00
2023-05-19T21:33:12.722Z,100.00
2023-05-19T21:35:14.465Z,100.00
2023-05-19T21:37:15.916Z,100.00
2023-05-19T21:39:17.488Z,99.38
2023-05-19T21:41:19.027Z,98.62
2023-05-19T21:43:20.588Z,98.21
2023-05-19T21:45:22.200Z,98.33
2023-05-19T21:47:23.774Z,97.49
2023-05-19T21:49:25.199Z,97.25
2023-05-19T21:51:26.853Z,96.85
2023-05-19T21:53:28.371Z,97.78
2023-05-19T21:55:29.818Z,97.27
2023-05-19T21:57:31.352Z,97.03
2023-05-19T21:59:32.819Z,96.11
2023-05-19T22:01:34.319Z,95.53
2023-05-19T22:03:35.951Z,95.85
2023-05-19T22:05:37.601Z,96.40
2023-05-19T22:07:39.071Z,96.48
2023-05-19T22:09:40.497Z,97.43
2023-05-19T22:11:41.960Z,97.57
2023-05-19T22:13:43.988Z,97.64
2023-05-19T22:15:46.394Z,96.90
2023-05-19T22:17:47.968Z,96.16
2023-05-19T22:19:49.414Z,94.68
2023-05-19T22:21:55.903Z,94.91
2023-05-19T22:24:04.014Z,93.84
2023-05-19T22:26:05.543Z,93.08
2023-05-19T22:28:07.138Z,95.04
2023-05-19T22:30:08.852Z,93.19
2023-05-19T22:32:10.290Z,93.21
2023-05-19T22:34:12.068Z,94.74
2023-05-19T22:36:13.651Z,93.33
2023-05-19T22:38:15.112Z,91.65
2023-05-19T22:40:16.791Z,91.37
2023-05-19T22:42:18.299Z,90.76
2023-05-19T22:44:19.751Z,90.75
2023-05-19T22:46:21.340Z,91.22
2023-05-19T22:48:22.796Z,91.89
2023-05-19T22:50:24.226Z,91.93
2023-05-19T22:52:25.761Z,91.32
2023-05-19T22:54:27.315Z,91.97
2023-05-19T22:56:28.782Z,90.32
2023-05-19T22:58:30.303Z,89.94
2023-05-19T23:00:32.150Z,90.36
2023-05-19T23:02:33.723Z,90.97
2023-05-19T23:04:35.799Z,90.80
2023-05-19T23:06:37.603Z,91.33
2023-05-19T23:08:39.027Z,91.15
2023-05-19T23:10:40.572Z,91.13
2023-05-19T23:12:42.234Z,90.68
2023-05-19T23:14:43.672Z,90.39
2023-05-19T23:16:45.345Z,90.31
2023-05-19T23:18:47.333Z,90.50
2023-05-19T23:20:48.828Z,90.62
2023-05-19T23:22:50.428Z,90.75
2023-05-19T23:24:52.080Z,91.58
2023-05-19T23:26:54.340Z,90.71
2023-05-19T23:28:56.089Z,90.91
2023-05-19T23:30:57.744Z,91.47
2023-05-19T23:32:59.222Z,91.57
2023-05-19T23:35:14.236Z,92.23
2023-05-19T23:37:15.904Z,92.10
2023-05-19T23:39:17.404Z,91.64
2023-05-19T23:41:19.001Z,93.13
2023-05-19T23:43:20.612Z,91.90
2023-05-19T23:45:22.033Z,91.60
2023-05-19T23:47:23.601Z,91.68
2023-05-19T23:49:25.310Z,91.94
2023-05-19T23:51:26.758Z,93.33
2023-05-19T23:53:28.463Z,93.02
2023-05-19T23:55:30.040Z,92.66
2023-05-19T23:57:31.530Z,92.93
2023-05-19T23:59:33.109Z,92.79
